sensor_id;sensor_type;location;lat;lon;timestamp;pressure;altitude;pressure_sealevel;temperature;humidity
78671;BME280;68277;52.724;6.516;2023-04-01T00:01:44;99120.09;;;9.12;93.16
78671;BME280;68277;52.724;6.516;2023-04-01T00:04:10;99120.75;;;9.17;93.54
78671;BME280;68277;52.724;6.516;2023-04-01T00:06:35;99117.63;;;9.09;93.83
78671;BME280;68277;52.724;6.516;2023-04-01T00:09:01;99101.47;;;8.96;93.15
78671;BME280;68277;52.724;6.516;2023-04-01T00:11:26;99145.09;;;9.23;93.79
78671;BME280;68277;52.724;6.516;2023-04-01T00:13:53;99130.41;;;9.18;93.62
78671;BME280;68277;52.724;6.516;2023-04-01T00:16:19;99121.09;;;9.09;93.29
78671;BME280;68277;52.724;6.516;2023-04-01T00:18:45;99128.03;;;9.12;93.28
78671;BME280;68277;52.724;6.516;2023-04-01T00:21:13;99117.00;;;9.02;93.42
78671;BME280;68277;52.724;6.516;2023-04-01T00:23:38;99098.91;;;8.94;93.70
78671;BME280;68277;52.724;6.516;2023-04-01T00:26:04;99123.81;;;9.08;93.87
78671;BME280;68277;52.724;6.516;2023-04-01T00:28:30;99139.97;;;9.20;94.07
78671;BME280;68277;52.724;6.516;2023-04-01T00:30:56;99145.47;;;9.16;94.13
78671;BME280;68277;52.724;6.516;2023-04-01T00:33:21;99130.03;;;9.07;94.82
78671;BME280;68277;52.724;6.516;2023-04-01T00:35:47;99108.50;;;8.95;94.30
78671;BME280;68277;52.724;6.516;2023-04-01T00:38:13;99144.59;;;9.15;94.00
78671;BME280;68277;52.724;6.516;2023-04-01T00:40:41;99114.31;;;9.04;94.10
78671;BME280;68277;52.724;6.516;2023-04-01T00:43:19;99136.88;;;9.11;93.69
78671;BME280;68277;52.724;6.516;2023-04-01T00:45:49;99143.66;;;9.16;93.88
78671;BME280;68277;52.724;6.516;2023-04-01T00:48:24;99123.88;;;9.06;94.19
78671;BME280;68277;52.724;6.516;2023-04-01T00:50:55;99132.59;;;9.08;94.23
78671;BME280;68277;52.724;6.516;2023-04-01T00:53:23;99138.44;;;9.15;93.99
78671;BME280;68277;52.724;6.516;2023-04-01T00:55:55;99042.53;;;8.57;94.79
78671;BME280;68277;52.724;6.516;2023-04-01T00:58:23;99147.22;;;9.15;95.09
78671;BME280;68277;52.724;6.516;2023-04-01T01:00:50;99091.31;;;8.87;95.38
78671;BME280;68277;52.724;6.516;2023-04-01T01:03:16;99112.91;;;8.95;94.59
78671;BME280;68277;52.724;6.516;2023-04-01T01:08:39;99146.44;;;9.13;94.21
78671;BME280;68277;52.724;6.516;2023-04-01T01:11:10;99118.06;;;8.98;94.70
78671;BME280;68277;52.724;6.516;2023-04-01T01:16:45;99139.31;;;9.15;93.94
78671;BME280;68277;52.724;6.516;2023-04-01T01:22:11;99138.44;;;9.15;93.74
78671;BME280;68277;52.724;6.516;2023-04-01T01:24:54;99146.38;;;9.15;94.10
78671;BME280;68277;52.724;6.516;2023-04-01T01:27:24;99149.09;;;9.13;94.86
78671;BME280;68277;52.724;6.516;2023-04-01T01:35:46;99144.81;;;9.11;94.62
78671;BME280;68277;52.724;6.516;2023-04-01T01:38:21;99124.09;;;9.02;95.04
78671;BME280;68277;52.724;6.516;2023-04-01T01:40:59;99115.50;;;8.97;94.38
78671;BME280;68277;52.724;6.516;2023-04-01T01:43:33;99121.56;;;8.99;94.65
78671;BME280;68277;52.724;6.516;2023-04-01T01:46:06;99100.13;;;8.86;94.63
78671;BME280;68277;52.724;6.516;2023-04-01T01:48:34;99140.59;;;9.07;95.11
78671;BME280;68277;52.724;6.516;2023-04-01T01:51:01;99106.34;;;8.85;94.18
78671;BME280;68277;52.724;6.516;2023-04-01T01:53:26;99114.72;;;8.94;94.21
78671;BME280;68277;52.724;6.516;2023-04-01T01:55:52;99132.00;;;9.02;94.40
78671;BME280;68277;52.724;6.516;2023-04-01T01:58:28;99113.06;;;8.92;93.98
78671;BME280;68277;52.724;6.516;2023-04-01T02:00:58;99120.03;;;8.93;94.47
78671;BME280;68277;52.724;6.516;2023-04-01T02:03:29;99135.47;;;9.02;94.17
78671;BME280;68277;52.724;6.516;2023-04-01T02:05:57;99146.78;;;9.06;94.14
78671;BME280;68277;52.724;6.516;2023-04-01T02:08:50;99145.03;;;9.05;94.19
78671;BME280;68277;52.724;6.516;2023-04-01T02:11:19;99148.41;;;9.08;94.38
78671;BME280;68277;52.724;6.516;2023-04-01T02:13:59;99161.63;;;9.08;93.94
78671;BME280;68277;52.724;6.516;2023-04-01T02:19:13;99139.25;;;8.97;94.19
78671;BME280;68277;52.724;6.516;2023-04-01T02:21:50;99137.72;;;8.91;93.93
78671;BME280;68277;52.724;6.516;2023-04-01T02:24:18;99159.09;;;9.05;94.37
78671;BME280;68277;52.724;6.516;2023-04-01T02:26:46;99152.25;;;9.01;94.17
78671;BME280;68277;52.724;6.516;2023-04-01T02:29:13;99172.97;;;9.10;94.40
78671;BME280;68277;52.724;6.516;2023-04-01T02:31:39;99150.72;;;8.95;93.84
78671;BME280;68277;52.724;6.516;2023-04-01T02:34:06;99166.97;;;9.07;94.33
78671;BME280;68277;52.724;6.516;2023-04-01T02:36:32;99124.06;;;8.81;93.92
78671;BME280;68277;52.724;6.516;2023-04-01T02:38:59;99166.09;;;9.06;93.75
78671;BME280;68277;52.724;6.516;2023-04-01T02:41:28;99144.72;;;8.92;94.84
78671;BME280;68277;52.724;6.516;2023-04-01T02:43:53;99176.47;;;9.11;94.57
78671;BME280;68277;52.724;6.516;2023-04-01T02:46:19;99173.81;;;9.11;94.51
78671;BME280;68277;52.724;6.516;2023-04-01T02:48:44;99163.50;;;9.05;94.10
78671;BME280;68277;52.724;6.516;2023-04-01T02:51:10;99158.59;;;8.97;93.96
78671;BME280;68277;52.724;6.516;2023-04-01T02:53:55;99180.88;;;9.10;94.05
78671;BME280;68277;52.724;6.516;2023-04-01T02:56:21;99146.59;;;8.90;94.23
78671;BME280;68277;52.724;6.516;2023-04-01T02:58:47;99178.16;;;9.12;94.99
78671;BME280;68277;52.724;6.516;2023-04-01T03:01:13;99167.22;;;9.01;94.40
78671;BME280;68277;52.724;6.516;2023-04-01T03:03:39;99154.41;;;8.91;94.25
78671;BME280;68277;52.724;6.516;2023-04-01T03:06:06;99156.06;;;8.94;94.03
78671;BME280;68277;52.724;6.516;2023-04-01T03:08:32;99183.78;;;9.04;94.39
78671;BME280;68277;52.724;6.516;2023-04-01T03:10:57;99175.06;;;9.02;94.17
78671;BME280;68277;52.724;6.516;2023-04-01T03:13:23;99192.63;;;9.03;94.24
78671;BME280;68277;52.724;6.516;2023-04-01T03:15:48;99194.19;;;9.07;94.49
78671;BME280;68277;52.724;6.516;2023-04-01T03:18:14;99197.50;;;9.12;94.33
78671;BME280;68277;52.724;6.516;2023-04-01T03:20:39;99173.56;;;8.97;94.09
78671;BME280;68277;52.724;6.516;2023-04-01T03:23:05;99191.56;;;9.07;94.57
78671;BME280;68277;52.724;6.516;2023-04-01T03:25:30;99189.00;;;9.06;94.40
78671;BME280;68277;52.724;6.516;2023-04-01T03:27:56;99192.53;;;9.05;93.96
78671;BME280;68277;52.724;6.516;2023-04-01T03:30:25;99207.16;;;9.13;94.83
78671;BME280;68277;52.724;6.516;2023-04-01T03:32:51;99194.34;;;9.04;94.22
78671;BME280;68277;52.724;6.516;2023-04-01T03:35:16;99189.31;;;8.98;93.87
78671;BME280;68277;52.724;6.516;2023-04-01T03:37:42;99181.59;;;8.93;94.33
78671;BME280;68277;52.724;6.516;2023-04-01T03:40:08;99198.75;;;9.04;93.83
78671;BME280;68277;52.724;6.516;2023-04-01T03:42:34;99194.59;;;8.98;94.42
78671;BME280;68277;52.724;6.516;2023-04-01T03:45:00;99208.34;;;9.06;93.69
78671;BME280;68277;52.724;6.516;2023-04-01T03:47:26;99215.31;;;9.07;94.28
78671;BME280;68277;52.724;6.516;2023-04-01T03:49:52;99233.47;;;9.15;94.21
78671;BME280;68277;52.724;6.516;2023-04-01T03:52:19;99202.38;;;9.01;93.97
78671;BME280;68277;52.724;6.516;2023-04-01T03:54:44;99182.84;;;8.85;94.31
78671;BME280;68277;52.724;6.516;2023-04-01T03:57:10;99211.09;;;9.03;94.20
78671;BME280;68277;52.724;6.516;2023-04-01T03:59:36;99187.19;;;8.86;93.91
78671;BME280;68277;52.724;6.516;2023-04-01T04:02:02;99197.53;;;8.90;94.16
78671;BME280;68277;52.724;6.516;2023-04-01T04:04:28;99199.19;;;8.93;93.80
78671;BME280;68277;52.724;6.516;2023-04-01T04:06:54;99207.06;;;8.94;93.89
78671;BME280;68277;52.724;6.516;2023-04-01T04:09:22;99223.41;;;9.03;94.64
78671;BME280;68277;52.724;6.516;2023-04-01T04:11:48;99196.63;;;8.91;94.58
78671;BME280;68277;52.724;6.516;2023-04-01T04:14:14;99208.75;;;8.95;94.25
78671;BME280;68277;52.724;6.516;2023-04-01T04:16:46;99244.09;;;9.13;94.65
78671;BME280;68277;52.724;6.516;2023-04-01T04:19:11;99228.66;;;9.04;94.51
78671;BME280;68277;52.724;6.516;2023-04-01T04:21:37;99235.63;;;9.05;94.29
78671;BME280;68277;52.724;6.516;2023-04-01T04:24:03;99209.63;;;8.96;94.39
78671;BME280;68277;52.724;6.516;2023-04-01T04:26:47;99245.94;;;9.11;94.49
78671;BME280;68277;52.724;6.516;2023-04-01T04:29:12;99228.03;;;8.98;94.38
78671;BME280;68277;52.724;6.516;2023-04-01T04:31:38;99219.59;;;8.89;94.90
78671;BME280;68277;52.724;6.516;2023-04-01T04:34:03;99240.19;;;9.02;94.32
78671;BME280;68277;52.724;6.516;2023-04-01T04:36:33;99230.94;;;8.91;94.73
78671;BME280;68277;52.724;6.516;2023-04-01T04:38:58;99219.59;;;8.89;94.39
78671;BME280;68277;52.724;6.516;2023-04-01T04:41:27;99263.56;;;9.11;94.44
78671;BME280;68277;52.724;6.516;2023-04-01T04:43:55;99256.81;;;9.04;94.62
78671;BME280;68277;52.724;6.516;2023-04-01T04:46:22;99255.09;;;9.03;94.58
78671;BME280;68277;52.724;6.516;2023-04-01T04:48:52;99252.59;;;9.00;94.29
78671;BME280;68277;52.724;6.516;2023-04-01T04:51:19;99274.97;;;9.11;94.70
78671;BME280;68277;52.724;6.516;2023-04-01T04:53:48;99265.59;;;9.04;94.88
78671;BME280;68277;52.724;6.516;2023-04-01T04:56:20;99258.78;;;8.99;94.39
78671;BME280;68277;52.724;6.516;2023-04-01T04:58:59;99247.81;;;8.87;94.25
78671;BME280;68277;52.724;6.516;2023-04-01T05:01:34;99258.91;;;8.95;93.76
78671;BME280;68277;52.724;6.516;2023-04-01T05:04:00;99281.44;;;9.04;93.91
78671;BME280;68277;52.724;6.516;2023-04-01T05:06:26;99250.31;;;8.90;94.24
78671;BME280;68277;52.724;6.516;2023-04-01T05:08:55;99249.66;;;8.85;94.05
78671;BME280;68277;52.724;6.516;2023-04-01T05:11:22;99256.44;;;8.91;94.43
78671;BME280;68277;52.724;6.516;2023-04-01T05:13:49;99284.00;;;9.06;94.81
78671;BME280;68277;52.724;6.516;2023-04-01T05:16:18;99300.38;;;9.14;94.39
78671;BME280;68277;52.724;6.516;2023-04-01T05:18:44;99285.88;;;9.02;93.99
78671;BME280;68277;52.724;6.516;2023-04-01T05:21:11;99287.72;;;9.00;93.71
78671;BME280;68277;52.724;6.516;2023-04-01T05:23:38;99284.19;;;9.01;94.04
78671;BME280;68277;52.724;6.516;2023-04-01T05:26:04;99311.78;;;9.14;93.89
78671;BME280;68277;52.724;6.516;2023-04-01T05:28:31;99279.28;;;8.92;93.80
78671;BME280;68277;52.724;6.516;2023-04-01T05:31:02;99288.66;;;8.99;93.99
78671;BME280;68277;52.724;6.516;2023-04-01T05:33:33;99296.44;;;9.02;93.79
78671;BME280;68277;52.724;6.516;2023-04-01T05:36:16;99307.75;;;9.06;94.11
78671;BME280;68277;52.724;6.516;2023-04-01T05:38:42;99311.19;;;9.08;93.95
78671;BME280;68277;52.724;6.516;2023-04-01T05:41:12;99301.78;;;9.01;94.00
78671;BME280;68277;52.724;6.516;2023-04-01T05:43:42;99305.03;;;9.07;93.90
78671;BME280;68277;52.724;6.516;2023-04-01T05:46:31;99299.22;;;8.99;94.03
78671;BME280;68277;52.724;6.516;2023-04-01T05:49:05;99325.91;;;9.13;94.04
78671;BME280;68277;52.724;6.516;2023-04-01T05:51:30;99292.50;;;8.90;93.53
78671;BME280;68277;52.724;6.516;2023-04-01T05:53:56;99301.97;;;8.96;93.98
78671;BME280;68277;52.724;6.516;2023-04-01T05:56:22;99307.19;;;8.98;94.08
78671;BME280;68277;52.724;6.516;2023-04-01T05:58:52;99329.56;;;9.09;94.04
78671;BME280;68277;52.724;6.516;2023-04-01T06:01:20;99348.41;;;9.22;94.39
78671;BME280;68277;52.724;6.516;2023-04-01T06:03:46;99331.19;;;9.13;94.18
78671;BME280;68277;52.724;6.516;2023-04-01T06:06:26;99356.22;;;9.25;94.30
78671;BME280;68277;52.724;6.516;2023-04-01T06:08:58;99358.78;;;9.26;94.05
78671;BME280;68277;52.724;6.516;2023-04-01T06:14:28;99367.50;;;9.28;94.55
78671;BME280;68277;52.724;6.516;2023-04-01T06:28:38;99376.00;;;9.36;93.87
78671;BME280;68277;52.724;6.516;2023-04-01T06:34:04;99394.22;;;9.42;94.09
78671;BME280;68277;52.724;6.516;2023-04-01T06:49:03;99415.03;;;9.50;94.38
78671;BME280;68277;52.724;6.516;2023-04-01T06:55:17;99424.59;;;9.52;94.92
78671;BME280;68277;52.724;6.516;2023-04-01T07:00:46;99395.00;;;9.44;94.71
78671;BME280;68277;52.724;6.516;2023-04-01T07:03:42;99428.31;;;9.70;94.53
78671;BME280;68277;52.724;6.516;2023-04-01T07:06:13;99406.00;;;9.55;94.31
78671;BME280;68277;52.724;6.516;2023-04-01T07:08:49;99359.34;;;9.34;94.58
78671;BME280;68277;52.724;6.516;2023-04-01T07:11:29;99443.16;;;9.73;94.33
78671;BME280;68277;52.724;6.516;2023-04-01T07:16:54;99411.47;;;9.51;95.02
78671;BME280;68277;52.724;6.516;2023-04-01T07:19:31;99452.88;;;9.72;94.97
78671;BME280;68277;52.724;6.516;2023-04-01T07:25:34;99404.47;;;9.50;94.60
78671;BME280;68277;52.724;6.516;2023-04-01T07:28:32;99442.41;;;9.69;94.42
78671;BME280;68277;52.724;6.516;2023-04-01T07:34:11;99419.88;;;9.60;94.26
78671;BME280;68277;52.724;6.516;2023-04-01T07:36:59;99448.97;;;9.81;94.03
78671;BME280;68277;52.724;6.516;2023-04-01T07:48:00;99469.00;;;9.86;93.41
78671;BME280;68277;52.724;6.516;2023-04-01T07:50:32;99455.31;;;9.77;93.70
78671;BME280;68277;52.724;6.516;2023-04-01T07:55:49;99486.94;;;10.00;93.45
78671;BME280;68277;52.724;6.516;2023-04-01T08:06:55;99526.03;;;10.13;93.53
78671;BME280;68277;52.724;6.516;2023-04-01T08:09:31;99491.81;;;9.89;93.20
78671;BME280;68277;52.724;6.516;2023-04-01T08:15:50;99544.31;;;10.19;93.04
78671;BME280;68277;52.724;6.516;2023-04-01T08:18:53;99548.66;;;10.20;92.83
78671;BME280;68277;52.724;6.516;2023-04-01T08:21:25;99544.94;;;10.24;93.18
78671;BME280;68277;52.724;6.516;2023-04-01T08:23:55;99552.72;;;10.29;92.96
78671;BME280;68277;52.724;6.516;2023-04-01T08:26:36;99549.09;;;10.32;92.84
78671;BME280;68277;52.724;6.516;2023-04-01T08:29:22;99555.84;;;10.39;92.75
78671;BME280;68277;52.724;6.516;2023-04-01T08:31:54;99558.53;;;10.37;92.95
78671;BME280;68277;52.724;6.516;2023-04-01T08:34:23;99545.97;;;10.22;92.94
78671;BME280;68277;52.724;6.516;2023-04-01T08:36:59;99575.53;;;10.32;92.82
78671;BME280;68277;52.724;6.516;2023-04-01T08:39:32;99574.03;;;10.24;92.83
78671;BME280;68277;52.724;6.516;2023-04-01T08:48:16;99590.63;;;10.50;93.16
78671;BME280;68277;52.724;6.516;2023-04-01T08:51:09;99590.69;;;10.48;92.80
78671;BME280;68277;52.724;6.516;2023-04-01T09:31:52;99642.38;;;10.77;91.23
78671;BME280;68277;52.724;6.516;2023-04-01T09:35:23;99641.53;;;10.96;91.54
78671;BME280;68277;52.724;6.516;2023-04-01T09:40:55;99661.25;;;11.10;89.98
78671;BME280;68277;52.724;6.516;2023-04-01T09:52:52;99669.41;;;11.05;90.14
78671;BME280;68277;52.724;6.516;2023-04-01T10:10:27;99697.56;;;10.86;89.66
78671;BME280;68277;52.724;6.516;2023-04-01T10:18:56;99716.25;;;10.83;89.39
78671;BME280;68277;52.724;6.516;2023-04-01T10:35:58;99733.88;;;11.24;88.08
78671;BME280;68277;52.724;6.516;2023-04-01T11:00:38;99734.28;;;11.15;87.80
78671;BME280;68277;52.724;6.516;2023-04-01T11:03:56;99755.75;;;11.29;86.70
78671;BME280;68277;52.724;6.516;2023-04-01T11:12:14;99755.09;;;11.64;85.65
78671;BME280;68277;52.724;6.516;2023-04-01T11:23:08;99776.22;;;11.66;83.31
78671;BME280;68277;52.724;6.516;2023-04-01T11:34:11;99783.41;;;11.84;83.42
78671;BME280;68277;52.724;6.516;2023-04-01T11:39:27;99793.94;;;11.86;82.47
78671;BME280;68277;52.724;6.516;2023-04-01T11:43:11;99811.84;;;11.59;83.92
78671;BME280;68277;52.724;6.516;2023-04-01T11:46:33;99824.81;;;11.25;85.70
78671;BME280;68277;52.724;6.516;2023-04-01T11:57:56;99855.19;;;10.94;87.74
78671;BME280;68277;52.724;6.516;2023-04-01T12:00:46;99865.19;;;10.86;87.40
78671;BME280;68277;52.724;6.516;2023-04-01T12:08:31;99877.28;;;10.70;86.80
78671;BME280;68277;52.724;6.516;2023-04-01T12:11:24;99877.63;;;10.61;87.24
78671;BME280;68277;52.724;6.516;2023-04-01T12:17:07;99887.16;;;10.67;87.68
78671;BME280;68277;52.724;6.516;2023-04-01T12:19:47;99885.34;;;10.67;87.75
78671;BME280;68277;52.724;6.516;2023-04-01T12:28:28;99899.25;;;10.49;86.96
78671;BME280;68277;52.724;6.516;2023-04-01T12:50:39;99946.53;;;10.09;89.20
78671;BME280;68277;52.724;6.516;2023-04-01T12:55:59;99955.50;;;10.03;89.24
78671;BME280;68277;52.724;6.516;2023-04-01T13:13:00;99954.53;;;9.81;88.85
78671;BME280;68277;52.724;6.516;2023-04-01T13:26:36;100015.78;;;9.94;88.96
78671;BME280;68277;52.724;6.516;2023-04-01T13:29:19;100006.06;;;9.94;89.03
78671;BME280;68277;52.724;6.516;2023-04-01T13:35:13;100019.66;;;10.10;88.12
78671;BME280;68277;52.724;6.516;2023-04-01T13:40:47;100027.75;;;10.04;88.10
78671;BME280;68277;52.724;6.516;2023-04-01T13:43:31;100034.56;;;10.11;87.89
78671;BME280;68277;52.724;6.516;2023-04-01T13:51:13;100060.88;;;10.15;87.67
78671;BME280;68277;52.724;6.516;2023-04-01T13:53:46;100066.25;;;10.14;87.25
78671;BME280;68277;52.724;6.516;2023-04-01T13:59:17;100073.94;;;9.94;87.76
78671;BME280;68277;52.724;6.516;2023-04-01T14:04:49;100088.25;;;9.87;86.88
78671;BME280;68277;52.724;6.516;2023-04-01T14:13:29;100099.94;;;9.50;89.08
78671;BME280;68277;52.724;6.516;2023-04-01T14:21:33;100108.34;;;9.34;89.71
78671;BME280;68277;52.724;6.516;2023-04-01T14:24:08;100124.28;;;9.31;89.97
78671;BME280;68277;52.724;6.516;2023-04-01T14:32:24;100132.19;;;9.31;89.29
78671;BME280;68277;52.724;6.516;2023-04-01T14:35:17;100135.78;;;9.28;89.65
78671;BME280;68277;52.724;6.516;2023-04-01T14:40:26;100155.94;;;9.32;90.09
78671;BME280;68277;52.724;6.516;2023-04-01T14:48:50;100165.31;;;9.42;88.93
78671;BME280;68277;52.724;6.516;2023-04-01T14:51:20;100155.53;;;9.46;87.59
78671;BME280;68277;52.724;6.516;2023-04-01T14:54:16;100168.56;;;9.52;87.32
78671;BME280;68277;52.724;6.516;2023-04-01T14:57:15;100166.13;;;9.44;87.69
78671;BME280;68277;52.724;6.516;2023-04-01T15:05:23;100192.53;;;9.44;87.20
78671;BME280;68277;52.724;6.516;2023-04-01T15:08:17;100178.91;;;9.29;87.36
78671;BME280;68277;52.724;6.516;2023-04-01T15:13:40;100189.03;;;9.13;87.46
78671;BME280;68277;52.724;6.516;2023-04-01T15:19:23;100231.75;;;9.27;87.92
78671;BME280;68277;52.724;6.516;2023-04-01T15:24:46;100210.69;;;8.92;88.27
78671;BME280;68277;52.724;6.516;2023-04-01T15:38:51;100275.44;;;9.07;87.78
78671;BME280;68277;52.724;6.516;2023-04-01T15:43:55;100273.81;;;9.01;86.37
78671;BME280;68277;52.724;6.516;2023-04-01T16:00:23;100266.13;;;8.90;85.41
78671;BME280;68277;52.724;6.516;2023-04-01T16:08:31;100314.38;;;8.97;85.80
78671;BME280;68277;52.724;6.516;2023-04-01T16:11:14;100300.00;;;8.72;86.21
78671;BME280;68277;52.724;6.516;2023-04-01T16:14:18;100347.00;;;8.94;86.52
78671;BME280;68277;52.724;6.516;2023-04-01T16:17:27;100355.91;;;8.89;86.15
78671;BME280;68277;52.724;6.516;2023-04-01T16:20:19;100354.09;;;8.91;85.46
78671;BME280;68277;52.724;6.516;2023-04-01T16:23:47;100366.69;;;8.80;86.00
78671;BME280;68277;52.724;6.516;2023-04-01T16:26:18;100364.22;;;8.72;86.33
78671;BME280;68277;52.724;6.516;2023-04-01T16:37:36;100412.66;;;8.68;85.52
78671;BME280;68277;52.724;6.516;2023-04-01T16:42:51;100407.97;;;8.41;86.87
78671;BME280;68277;52.724;6.516;2023-04-01T16:45:24;100427.34;;;8.40;86.90
78671;BME280;68277;52.724;6.516;2023-04-01T16:47:56;100422.16;;;8.36;87.13
78671;BME280;68277;52.724;6.516;2023-04-01T16:50:27;100430.91;;;8.36;88.04
78671;BME280;68277;52.724;6.516;2023-04-01T16:55:49;100449.53;;;8.27;88.47
78671;BME280;68277;52.724;6.516;2023-04-01T16:58:25;100456.63;;;8.22;88.99
78671;BME280;68277;52.724;6.516;2023-04-01T17:00:58;100462.81;;;8.21;89.24
78671;BME280;68277;52.724;6.516;2023-04-01T17:03:40;100463.78;;;8.17;89.01
78671;BME280;68277;52.724;6.516;2023-04-01T17:09:04;100453.69;;;7.93;89.34
78671;BME280;68277;52.724;6.516;2023-04-01T17:11:48;100449.38;;;7.89;89.13
78671;BME280;68277;52.724;6.516;2023-04-01T17:17:21;100491.28;;;8.02;88.95
78671;BME280;68277;52.724;6.516;2023-04-01T17:20:00;100499.28;;;7.98;88.85
78671;BME280;68277;52.724;6.516;2023-04-01T17:28:11;100516.22;;;7.82;89.15
78671;BME280;68277;52.724;6.516;2023-04-01T17:31:18;100511.13;;;7.71;89.49
78671;BME280;68277;52.724;6.516;2023-04-01T17:33:45;100538.19;;;7.81;88.81
78671;BME280;68277;52.724;6.516;2023-04-01T17:39:00;100539.22;;;7.72;88.76
78671;BME280;68277;52.724;6.516;2023-04-01T17:44:44;100570.81;;;7.72;89.23
78671;BME280;68277;52.724;6.516;2023-04-01T17:53:01;100592.13;;;7.55;88.93
78671;BME280;68277;52.724;6.516;2023-04-01T17:58:39;100601.97;;;7.43;87.82
78671;BME280;68277;52.724;6.516;2023-04-01T18:04:17;100619.38;;;7.51;87.03
78671;BME280;68277;52.724;6.516;2023-04-01T18:07:07;100618.50;;;7.52;86.54
78671;BME280;68277;52.724;6.516;2023-04-01T18:12:47;100622.22;;;7.35;86.95
78671;BME280;68277;52.724;6.516;2023-04-01T18:15:32;100658.09;;;7.45;85.93
78671;BME280;68277;52.724;6.516;2023-04-01T18:26:28;100683.66;;;7.35;86.21
78671;BME280;68277;52.724;6.516;2023-04-01T18:31:32;100689.84;;;7.33;86.11
78671;BME280;68277;52.724;6.516;2023-04-01T18:37:18;100704.88;;;7.22;87.06
78671;BME280;68277;52.724;6.516;2023-04-01T18:40:00;100690.91;;;7.14;86.54
78671;BME280;68277;52.724;6.516;2023-04-01T18:43:00;100683.25;;;6.97;86.37
78671;BME280;68277;52.724;6.516;2023-04-01T18:45:46;100723.44;;;7.07;86.92
78671;BME280;68277;52.724;6.516;2023-04-01T18:48:40;100722.56;;;7.08;86.49
78671;BME280;68277;52.724;6.516;2023-04-01T18:54:03;100741.94;;;7.04;87.30
78671;BME280;68277;52.724;6.516;2023-04-01T18:56:37;100741.13;;;6.93;87.92
78671;BME280;68277;52.724;6.516;2023-04-01T19:02:00;100724.75;;;6.63;87.64
78671;BME280;68277;52.724;6.516;2023-04-01T19:06:58;100775.47;;;6.80;88.14
78671;BME280;68277;52.724;6.516;2023-04-01T19:09:27;100797.31;;;6.87;88.01
78671;BME280;68277;52.724;6.516;2023-04-01T19:25:38;100826.47;;;6.55;88.38
78671;BME280;68277;52.724;6.516;2023-04-01T19:28:39;100828.19;;;6.64;87.67
78671;BME280;68277;52.724;6.516;2023-04-01T19:36:37;100838.75;;;6.53;88.44
78671;BME280;68277;52.724;6.516;2023-04-01T19:44:55;100867.69;;;6.52;88.82
78671;BME280;68277;52.724;6.516;2023-04-01T19:47:39;100872.94;;;6.50;88.03
78671;BME280;68277;52.724;6.516;2023-04-01T19:50:30;100868.56;;;6.49;88.19
78671;BME280;68277;52.724;6.516;2023-04-01T19:53:11;100871.22;;;6.46;87.54
78671;BME280;68277;52.724;6.516;2023-04-01T19:58:36;100895.78;;;6.45;88.52
78671;BME280;68277;52.724;6.516;2023-04-01T20:01:09;100904.50;;;6.46;88.14
78671;BME280;68277;52.724;6.516;2023-04-01T20:04:07;100887.94;;;6.33;89.21
78671;BME280;68277;52.724;6.516;2023-04-01T20:12:28;100909.84;;;6.29;88.42
78671;BME280;68277;52.724;6.516;2023-04-01T20:15:03;100914.28;;;6.24;87.81
78671;BME280;68277;52.724;6.516;2023-04-01T20:17:43;100943.13;;;6.33;88.70
78671;BME280;68277;52.724;6.516;2023-04-01T20:25:33;100965.91;;;6.27;88.58
78671;BME280;68277;52.724;6.516;2023-04-01T20:28:28;100971.16;;;6.27;88.52
78671;BME280;68277;52.724;6.516;2023-04-01T20:31:11;100979.97;;;6.24;88.83
78671;BME280;68277;52.724;6.516;2023-04-01T20:34:13;100944.13;;;6.00;88.46
78671;BME280;68277;52.724;6.516;2023-04-01T20:37:00;100991.34;;;6.23;88.71
78671;BME280;68277;52.724;6.516;2023-04-01T20:50:57;101006.25;;;6.09;87.94
78671;BME280;68277;52.724;6.516;2023-04-01T20:54:01;101024.63;;;6.10;88.21
78671;BME280;68277;52.724;6.516;2023-04-01T21:02:23;101041.28;;;6.03;88.22
78671;BME280;68277;52.724;6.516;2023-04-01T21:19:16;101082.44;;;5.92;86.84
78671;BME280;68277;52.724;6.516;2023-04-01T21:21:50;101081.56;;;5.89;87.26
78671;BME280;68277;52.724;6.516;2023-04-01T21:35:51;101104.28;;;5.73;87.62
78671;BME280;68277;52.724;6.516;2023-04-01T21:44:20;101140.16;;;5.77;87.20
78671;BME280;68277;52.724;6.516;2023-04-01T21:53:31;101116.50;;;5.50;86.31
78671;BME280;68277;52.724;6.516;2023-04-01T22:00:54;101158.53;;;5.68;86.89
78671;BME280;68277;52.724;6.516;2023-04-01T22:09:25;101177.81;;;5.63;86.52
78671;BME280;68277;52.724;6.516;2023-04-01T22:22:58;101200.53;;;5.59;86.87
78671;BME280;68277;52.724;6.516;2023-04-01T22:28:05;101218.03;;;5.60;86.50
78671;BME280;68277;52.724;6.516;2023-04-01T22:30:42;101216.28;;;5.61;86.34
78671;BME280;68277;52.724;6.516;2023-04-01T22:52:45;101248.56;;;5.37;85.94
78671;BME280;68277;52.724;6.516;2023-04-01T22:55:28;101252.03;;;5.31;86.61
78671;BME280;68277;52.724;6.516;2023-04-01T22:58:02;101248.53;;;5.29;86.73
78671;BME280;68277;52.724;6.516;2023-04-01T23:03:16;101272.19;;;5.38;86.27
78671;BME280;68277;52.724;6.516;2023-04-01T23:05:58;101278.28;;;5.36;86.56
78671;BME280;68277;52.724;6.516;2023-04-01T23:08:46;101285.25;;;5.32;86.93
78671;BME280;68277;52.724;6.516;2023-04-01T23:11:20;101270.31;;;5.19;86.12
78671;BME280;68277;52.724;6.516;2023-04-01T23:13:52;101279.09;;;5.24;86.10
78671;BME280;68277;52.724;6.516;2023-04-01T23:16:35;101266.75;;;5.08;86.46
78671;BME280;68277;52.724;6.516;2023-04-01T23:19:18;101286.91;;;5.17;85.83
78671;BME280;68277;52.724;6.516;2023-04-01T23:21:52;101296.53;;;5.15;85.80
78671;BME280;68277;52.724;6.516;2023-04-01T23:24:28;101264.03;;;4.92;86.05
78671;BME280;68277;52.724;6.516;2023-04-01T23:27:01;101291.25;;;5.10;85.26
78671;BME280;68277;52.724;6.516;2023-04-01T23:29:28;101308.75;;;5.13;85.70
78671;BME280;68277;52.724;6.516;2023-04-01T23:32:02;101319.25;;;5.13;85.76
78671;BME280;68277;52.724;6.516;2023-04-01T23:34:33;101301.69;;;5.01;85.00
78671;BME280;68277;52.724;6.516;2023-04-01T23:37:04;101331.50;;;5.14;84.79
78671;BME280;68277;52.724;6.516;2023-04-01T23:42:23;101330.53;;;5.01;84.93
78671;BME280;68277;52.724;6.516;2023-04-01T23:44:52;101332.31;;;5.07;84.41